createdAt,value
2019-01-12T00:00:57.415Z,95128.05
2019-01-12T00:03:28.725Z,95120.66
2019-01-12T00:06:02.187Z,95125.09
2019-01-12T00:08:33.361Z,95120.07
2019-01-12T00:11:06.929Z,95114.20
2019-01-12T00:13:38.231Z,95116.50
2019-01-12T00:16:09.592Z,95130.65
2019-01-12T00:18:41.015Z,95143.10
2019-01-12T00:21:12.266Z,95135.20
2019-01-12T00:23:43.515Z,95131.89
2019-01-12T00:26:17.224Z,95130.94
2019-01-12T00:28:48.348Z,95134.26
2019-01-12T00:31:19.422Z,95134.75
2019-01-12T00:33:50.723Z,95126.47
2019-01-12T00:36:21.981Z,95124.61
2019-01-12T00:38:53.335Z,95118.97
2019-01-12T00:41:24.527Z,95117.56
2019-01-12T00:43:55.558Z,95125.13
2019-01-12T00:46:26.846Z,95116.95
2019-01-12T00:48:58.024Z,95109.78
2019-01-12T00:51:29.099Z,95104.21
2019-01-12T00:54:00.404Z,95109.05
2019-01-12T00:56:31.524Z,95106.61
2019-01-12T00:59:04.693Z,95109.03
2019-01-12T01:01:36.063Z,95113.53
2019-01-12T01:04:10.206Z,95106.29
2019-01-12T01:06:43.432Z,95097.98
2019-01-12T01:09:14.429Z,95094.28
2019-01-12T01:11:48.413Z,95085.48
2019-01-12T01:14:20.728Z,95086.12
2019-01-12T01:16:51.927Z,95103.89
2019-01-12T01:19:23.133Z,95103.89
2019-01-12T01:21:54.257Z,95104.07
2019-01-12T01:24:25.641Z,95091.67
2019-01-12T01:26:58.451Z,95090.52
2019-01-12T01:29:29.730Z,95098.05
2019-01-12T01:32:00.954Z,95103.55
2019-01-12T01:34:32.318Z,95096.86
2019-01-12T01:37:04.748Z,95101.19
2019-01-12T01:39:36.088Z,95097.83
2019-01-12T01:42:08.647Z,95096.11
2019-01-12T01:44:39.969Z,95098.00
2019-01-12T01:47:11.256Z,95098.00
2019-01-12T01:49:42.510Z,95096.02
2019-01-12T01:52:13.786Z,95090.14
2019-01-12T01:54:45.026Z,95084.09
2019-01-12T01:57:16.277Z,95076.91
2019-01-12T01:59:47.620Z,95079.66
2019-01-12T02:02:18.973Z,95072.23
2019-01-12T02:04:50.140Z,95075.44
2019-01-12T02:07:21.356Z,95078.52
2019-01-12T02:09:52.915Z,95065.91
2019-01-12T02:12:24.069Z,95067.38
2019-01-12T02:14:55.254Z,95074.64
2019-01-12T02:17:26.340Z,95070.48
2019-01-12T02:19:57.646Z,95067.94
2019-01-12T02:22:28.976Z,95056.33
2019-01-12T02:25:00.441Z,95047.73
2019-01-12T02:27:31.502Z,95047.73
2019-01-12T02:30:02.757Z,95045.64
2019-01-12T02:32:34.079Z,95045.31
2019-01-12T02:35:05.697Z,95045.06
2019-01-12T02:37:36.958Z,95037.02
2019-01-12T02:40:08.348Z,95046.39
2019-01-12T02:42:39.634Z,95040.48
2019-01-12T02:45:11.293Z,95041.03
2019-01-12T02:47:44.364Z,95050.90
2019-01-12T02:50:15.588Z,95046.78
2019-01-12T02:52:46.980Z,95041.02
2019-01-12T02:55:18.147Z,95032.69
2019-01-12T02:57:49.498Z,95037.41
2019-01-12T03:00:20.998Z,95029.60
2019-01-12T03:02:53.878Z,95034.19
2019-01-12T03:05:25.064Z,95021.97
2019-01-12T03:07:56.142Z,95022.11
2019-01-12T03:10:27.488Z,95007.89
2019-01-12T03:12:58.673Z,95004.42
2019-01-12T03:15:29.960Z,95006.02
2019-01-12T03:18:01.097Z,95006.22
2019-01-12T03:20:32.496Z,94999.44
2019-01-12T03:23:03.678Z,94989.86
2019-01-12T03:25:35.015Z,94976.11
2019-01-12T03:28:08.318Z,94992.61
2019-01-12T03:30:39.710Z,94997.84
2019-01-12T03:33:11.036Z,94993.48
2019-01-12T03:35:42.355Z,94982.55
2019-01-12T03:38:13.480Z,94977.67
2019-01-12T03:40:44.852Z,94973.84
2019-01-12T03:43:16.116Z,94978.66
2019-01-12T03:45:47.407Z,94982.64
2019-01-12T03:48:18.734Z,94990.45
2019-01-12T03:50:50.009Z,94982.06
2019-01-12T03:53:21.272Z,94983.15
2019-01-12T03:55:52.569Z,94972.94
2019-01-12T03:58:25.228Z,94976.69
2019-01-12T04:00:56.600Z,94979.31
2019-01-12T04:03:27.858Z,94979.39
2019-01-12T04:05:59.102Z,94971.80
2019-01-12T04:08:30.425Z,94981.66
2019-01-12T04:11:01.906Z,94982.59
2019-01-12T04:13:33.046Z,94979.98
2019-01-12T04:16:04.496Z,94982.19
2019-01-12T04:18:35.797Z,94980.74
2019-01-12T04:21:07.118Z,94989.62
2019-01-12T04:23:38.440Z,94984.88
2019-01-12T04:26:09.766Z,94984.97
2019-01-12T04:28:41.049Z,94982.58
2019-01-12T04:31:12.138Z,94979.03
2019-01-12T04:33:43.318Z,94972.06
2019-01-12T04:36:14.613Z,94971.95
2019-01-12T04:38:45.869Z,94976.82
2019-01-12T04:41:17.135Z,94976.82
2019-01-12T04:43:48.350Z,94971.75
2019-01-12T04:46:19.661Z,94972.14
2019-01-12T04:48:50.824Z,94970.48
2019-01-12T04:51:22.056Z,94967.86
2019-01-12T04:53:53.391Z,94966.56
2019-01-12T04:56:24.621Z,94974.16
2019-01-12T04:58:55.872Z,94968.91
2019-01-12T05:01:27.142Z,94973.08
2019-01-12T05:03:58.252Z,94970.13
2019-01-12T05:06:29.593Z,94969.05
2019-01-12T05:09:00.764Z,94975.05
2019-01-12T05:11:33.514Z,94978.51
2019-01-12T05:14:04.721Z,94980.03
2019-01-12T05:16:35.867Z,94983.88
2019-01-12T05:19:07.144Z,94986.95
2019-01-12T05:21:38.320Z,94987.22
2019-01-12T05:24:09.652Z,94989.35
2019-01-12T05:26:40.826Z,94992.04
2019-01-12T05:29:12.000Z,94983.81
2019-01-12T05:31:43.384Z,94988.49
2019-01-12T05:34:14.523Z,94985.95
2019-01-12T05:36:45.812Z,94990.55
2019-01-12T05:39:18.208Z,94989.69
2019-01-12T05:41:49.437Z,94993.03
2019-01-12T05:44:20.482Z,94992.67
2019-01-12T05:46:51.642Z,95004.96
2019-01-12T05:49:25.090Z,95000.25
2019-01-12T05:51:56.171Z,95000.03
2019-01-12T05:54:27.354Z,94999.92
2019-01-12T05:56:58.573Z,94997.77
2019-01-12T05:59:31.829Z,94990.73
2019-01-12T06:02:03.099Z,94989.02
2019-01-12T06:04:34.256Z,94990.77
2019-01-12T06:07:06.509Z,94994.97
2019-01-12T06:09:37.787Z,94991.98
2019-01-12T06:12:09.061Z,94986.89
2019-01-12T06:14:41.157Z,94992.38
2019-01-12T06:17:12.455Z,94996.49
2019-01-12T06:19:43.766Z,94998.52
2019-01-12T06:22:15.160Z,94991.84
2019-01-12T06:24:46.307Z,94995.05
2019-01-12T06:27:17.404Z,95010.25
2019-01-12T06:29:48.593Z,95007.50
2019-01-12T06:32:19.922Z,95003.83
2019-01-12T06:34:51.051Z,95000.09
2019-01-12T06:37:22.211Z,94998.62
2019-01-12T06:39:53.363Z,94994.53
2019-01-12T06:42:25.951Z,95002.50
2019-01-12T06:44:57.097Z,95001.58
2019-01-12T06:47:28.371Z,95007.96
2019-01-12T06:49:59.597Z,95000.77
2019-01-12T06:52:30.691Z,94997.56
2019-01-12T06:55:01.969Z,95006.10
2019-01-12T06:57:33.232Z,95003.67
2019-01-12T07:00:05.955Z,95010.81
2019-01-12T07:02:37.063Z,95012.84
2019-01-12T07:05:08.799Z,95011.09
2019-01-12T07:07:40.110Z,95011.64
2019-01-12T07:10:12.135Z,95006.41
2019-01-12T07:12:43.462Z,95005.41
2019-01-12T07:15:15.079Z,95009.85
2019-01-12T07:17:46.406Z,95014.53
2019-01-12T07:20:18.177Z,95009.64
2019-01-12T07:22:51.786Z,95008.51
2019-01-12T07:25:22.964Z,95001.09
2019-01-12T07:27:54.248Z,95001.09
2019-01-12T07:30:25.569Z,95005.27
2019-01-12T07:32:56.764Z,95003.41
2019-01-12T07:35:28.131Z,95001.73
2019-01-12T07:37:59.284Z,95005.68
2019-01-12T07:40:30.327Z,95004.19
2019-01-12T07:43:01.499Z,95008.17
2019-01-12T07:45:34.426Z,95005.96
2019-01-12T07:48:06.034Z,95006.57
2019-01-12T07:50:37.565Z,95014.55
2019-01-12T07:53:08.966Z,95017.35
2019-01-12T07:55:40.150Z,95015.33
2019-01-12T07:58:11.330Z,95006.50
2019-01-12T08:00:42.555Z,95008.77
2019-01-12T08:03:13.899Z,95002.00
2019-01-12T08:05:45.120Z,95002.80
2019-01-12T08:08:16.280Z,95007.02
2019-01-12T08:10:47.725Z,95005.84
2019-01-12T08:13:18.857Z,95006.36
2019-01-12T08:15:50.025Z,95009.19
2019-01-12T08:18:21.344Z,95003.13
2019-01-12T08:20:52.504Z,95011.84
2019-01-12T08:23:25.839Z,95020.30
2019-01-12T08:25:56.597Z,95018.24
2019-01-12T08:28:27.899Z,95030.44
2019-01-12T08:30:59.239Z,95024.13
2019-01-12T08:33:30.741Z,95029.36
2019-01-12T08:36:02.234Z,95032.05
2019-01-12T08:38:33.431Z,95031.25
2019-01-12T08:41:04.674Z,95033.89
2019-01-12T08:43:35.857Z,95043.19
2019-01-12T08:46:07.210Z,95030.89
2019-01-12T08:48:40.439Z,95026.59
2019-01-12T08:51:11.789Z,95027.53
2019-01-12T08:53:43.100Z,95015.95
2019-01-12T08:56:14.447Z,95015.95
2019-01-12T08:58:45.991Z,95004.15
2019-01-12T09:01:17.142Z,95004.15
2019-01-12T09:03:50.469Z,94998.72
2019-01-12T09:06:21.672Z,94998.72
2019-01-12T09:08:52.967Z,94992.34
2019-01-12T09:11:24.238Z,94983.18
2019-01-12T09:13:56.846Z,94980.75
2019-01-12T09:16:27.990Z,94977.89
2019-01-12T09:18:59.247Z,94974.31
2019-01-12T09:21:30.454Z,94967.99
2019-01-12T09:24:01.512Z,94945.91
2019-01-12T09:26:32.838Z,94945.91
2019-01-12T09:29:04.506Z,94940.04
2019-01-12T09:31:35.759Z,94940.04
2019-01-12T09:34:07.068Z,94930.43
2019-01-12T09:36:38.260Z,94921.50
2019-01-12T09:39:10.388Z,94919.39
2019-01-12T09:41:41.484Z,94919.39
2019-01-12T09:44:14.229Z,94928.56
2019-01-12T09:46:45.333Z,94924.91
2019-01-12T09:49:16.717Z,94913.97
2019-01-12T09:51:49.497Z,94916.66
2019-01-12T09:54:20.702Z,94916.66
2019-01-12T09:56:52.062Z,94931.44
2019-01-12T09:59:23.267Z,94932.87
2019-01-12T10:01:55.519Z,94928.87
2019-01-12T10:04:26.716Z,94912.98
2019-01-12T10:06:57.902Z,94902.55
2019-01-12T10:09:29.197Z,94902.55
2019-01-12T10:12:00.313Z,94912.10
2019-01-12T10:14:31.764Z,94905.07
2019-01-12T10:17:03.048Z,94905.07
2019-01-12T10:19:34.257Z,94889.38
2019-01-12T10:22:05.717Z,94890.64
2019-01-12T10:24:37.038Z,94879.57
2019-01-12T10:27:08.350Z,94884.60
2019-01-12T10:29:39.616Z,94889.70
2019-01-12T10:32:10.709Z,94888.27
2019-01-12T10:34:42.026Z,94880.03
2019-01-12T10:37:13.266Z,94881.91
2019-01-12T10:39:44.509Z,94871.62
2019-01-12T10:42:15.922Z,94871.17
2019-01-12T10:44:47.175Z,94866.34
2019-01-12T10:47:18.282Z,94864.05
2019-01-12T10:49:49.493Z,94866.20
2019-01-12T10:52:20.653Z,94858.41
2019-01-12T10:54:51.960Z,94861.95
2019-01-12T10:57:23.714Z,94860.83
2019-01-12T10:59:54.889Z,94858.24
2019-01-12T11:02:26.195Z,94853.98
2019-01-12T11:04:57.524Z,94854.77
2019-01-12T11:07:28.822Z,94849.88
2019-01-12T11:10:04.096Z,94850.17
2019-01-12T11:12:33.103Z,94851.12
2019-01-12T11:15:04.793Z,94849.81
2019-01-12T11:17:36.065Z,94841.67
2019-01-12T11:20:07.831Z,94837.40
2019-01-12T11:22:39.191Z,94838.69
2019-01-12T11:25:11.788Z,94838.94
2019-01-12T11:27:43.144Z,94841.47
2019-01-12T11:30:17.780Z,94840.30
2019-01-12T11:32:49.163Z,94833.45
2019-01-12T11:35:20.428Z,94822.89
2019-01-12T11:37:51.653Z,94822.81
2019-01-12T11:40:23.184Z,94819.11
2019-01-12T11:42:54.479Z,94821.93
2019-01-12T11:45:25.917Z,94820.05
2019-01-12T11:47:57.136Z,94816.81
2019-01-12T11:50:28.427Z,94818.17
2019-01-12T11:53:01.126Z,94808.05
2019-01-12T11:55:32.517Z,94800.67
2019-01-12T11:58:03.831Z,94800.42
2019-01-12T12:00:35.115Z,94799.04
2019-01-12T12:03:07.983Z,94796.73
2019-01-12T12:05:39.324Z,94788.23
2019-01-12T12:08:10.354Z,94792.79
2019-01-12T12:10:41.656Z,94794.18
2019-01-12T12:13:12.929Z,94794.58
2019-01-12T12:15:44.184Z,94860.05
2019-01-12T12:18:15.636Z,94782.17
2019-01-12T12:20:46.635Z,94786.04
2019-01-12T12:23:17.712Z,94783.83
2019-01-12T12:25:49.051Z,94783.83
2019-01-12T12:28:20.386Z,94779.39
2019-01-12T12:30:51.679Z,94777.78
2019-01-12T12:33:22.812Z,94777.78
2019-01-12T12:35:54.209Z,94805.88
2019-01-12T12:38:27.053Z,94785.10
2019-01-12T12:40:58.409Z,94781.05
2019-01-12T12:43:29.503Z,94781.05
2019-01-12T12:46:00.783Z,94784.27
2019-01-12T12:48:33.491Z,94784.27
2019-01-12T12:51:04.636Z,94778.92
2019-01-12T12:53:35.834Z,94790.14
2019-01-12T12:56:07.140Z,94790.14
2019-01-12T12:58:39.286Z,94788.08
2019-01-12T13:01:10.665Z,94788.08
2019-01-12T13:03:41.932Z,94789.48
2019-01-12T13:06:13.245Z,94785.23
2019-01-12T13:08:48.388Z,94785.23
2019-01-12T13:11:17.470Z,94786.55
2019-01-12T13:13:48.634Z,94787.58
2019-01-12T13:16:19.853Z,94779.27
2019-01-12T13:18:51.101Z,94774.44
2019-01-12T13:21:22.355Z,94772.45
2019-01-12T13:23:53.654Z,94779.65
2019-01-12T13:26:24.985Z,94778.40
2019-01-12T13:28:56.118Z,94769.27
2019-01-12T13:31:27.416Z,94775.95
2019-01-12T13:33:58.485Z,94773.80
2019-01-12T13:36:30.041Z,94776.39
2019-01-12T13:39:01.327Z,94779.36
2019-01-12T13:41:33.427Z,94785.44
2019-01-12T13:44:04.658Z,94779.08
2019-01-12T13:46:37.105Z,94779.73
2019-01-12T13:49:08.121Z,94776.17
2019-01-12T13:51:39.407Z,94779.73
2019-01-12T13:54:10.648Z,94779.25
2019-01-12T13:56:41.770Z,94771.13
2019-01-12T13:59:12.987Z,94775.61
2019-01-12T14:01:43.964Z,94775.61
2019-01-12T14:04:15.097Z,94778.17
2019-01-12T14:06:46.280Z,94772.45
2019-01-12T14:09:17.552Z,94782.66
2019-01-12T14:11:48.816Z,94772.13
2019-01-12T14:14:19.996Z,94781.86
2019-01-12T14:16:51.290Z,94780.27
2019-01-12T14:19:22.520Z,94785.52
2019-01-12T14:21:53.788Z,94786.50
2019-01-12T14:24:25.002Z,94794.30
2019-01-12T14:26:56.302Z,94792.23
2019-01-12T14:29:27.602Z,94794.16
2019-01-12T14:31:58.774Z,94792.53
2019-01-12T14:34:30.055Z,94795.74
2019-01-12T14:37:01.235Z,94792.23
2019-01-12T14:39:32.575Z,94784.09
2019-01-12T14:42:03.879Z,94791.59
2019-01-12T14:44:35.192Z,94794.42
2019-01-12T14:47:06.495Z,94797.60
2019-01-12T14:49:37.899Z,94791.03
2019-01-12T14:52:09.389Z,94796.91
2019-01-12T14:54:40.526Z,94791.61
2019-01-12T14:57:11.816Z,94788.20
2019-01-12T14:59:43.042Z,94783.06
2019-01-12T15:02:14.473Z,94791.69
2019-01-12T15:04:45.886Z,94783.75
2019-01-12T15:07:17.242Z,94787.22
2019-01-12T15:09:48.433Z,94785.32
2019-01-12T15:12:19.622Z,94789.28
2019-01-12T15:14:50.949Z,94785.61
2019-01-12T15:17:22.157Z,94792.75
2019-01-12T15:19:53.546Z,94790.59
2019-01-12T15:22:24.674Z,94792.34
2019-01-12T15:24:56.082Z,94795.59
2019-01-12T15:27:27.372Z,94794.65
2019-01-12T15:29:58.534Z,94796.30
2019-01-12T15:32:29.789Z,94798.75
2019-01-12T15:35:00.956Z,94806.86
2019-01-12T15:37:32.255Z,94807.46
2019-01-12T15:40:04.045Z,94802.52
2019-01-12T15:42:35.246Z,94807.73
2019-01-12T15:45:08.311Z,94805.00
2019-01-12T15:47:40.440Z,94797.02
2019-01-12T15:50:14.955Z,94804.80
2019-01-12T15:52:48.093Z,94799.24
2019-01-12T15:55:19.742Z,94810.98
2019-01-12T15:57:51.418Z,94811.02
2019-01-12T16:00:27.493Z,94819.13
2019-01-12T16:02:59.267Z,94823.70
2019-01-12T16:05:31.563Z,94826.44
2019-01-12T16:08:02.830Z,94830.58
2019-01-12T16:10:33.987Z,94828.73
2019-01-12T16:13:05.241Z,94836.16
2019-01-12T16:15:36.489Z,94840.86
2019-01-12T16:18:07.880Z,94838.30
2019-01-12T16:20:43.025Z,94834.69
2019-01-12T16:23:14.863Z,94834.35
2019-01-12T16:25:46.131Z,94835.28
2019-01-12T16:28:23.193Z,94839.83
2019-01-12T16:30:50.414Z,94836.97
2019-01-12T16:33:21.731Z,94836.09
2019-01-12T16:35:54.345Z,94843.25
2019-01-12T16:38:25.526Z,94836.58
2019-01-12T16:40:56.891Z,94841.97
2019-01-12T16:43:28.072Z,94842.17
2019-01-12T16:46:01.408Z,94841.50
2019-01-12T16:48:32.268Z,94839.38
2019-01-12T16:51:04.692Z,94841.97
2019-01-12T16:53:35.997Z,94845.94
2019-01-12T16:56:07.209Z,94846.45
2019-01-12T16:58:38.509Z,94847.75
2019-01-12T17:01:09.715Z,94843.31
2019-01-12T17:03:41.014Z,94840.72
2019-01-12T17:06:12.355Z,94843.86
2019-01-12T17:08:43.705Z,94842.92
2019-01-12T17:11:14.982Z,94845.80
2019-01-12T17:13:46.269Z,94842.73
2019-01-12T17:16:17.648Z,94844.05
2019-01-12T17:18:48.892Z,94844.71
2019-01-12T17:21:20.117Z,94844.78
2019-01-12T17:23:51.469Z,94844.92
2019-01-12T17:26:22.840Z,94851.22
2019-01-12T17:28:54.284Z,94851.09
2019-01-12T17:31:25.622Z,94851.09
2019-01-12T17:33:56.886Z,94847.67
2019-01-12T17:36:28.144Z,94849.63
2019-01-12T17:38:59.442Z,94851.09
2019-01-12T17:41:30.662Z,94850.88
2019-01-12T17:44:01.928Z,94853.84
2019-01-12T17:46:33.156Z,94850.88
2019-01-12T17:49:06.162Z,94851.54
2019-01-12T17:51:37.469Z,94844.28
2019-01-12T17:54:08.760Z,94858.66
2019-01-12T17:56:40.067Z,94856.31
2019-01-12T17:59:11.259Z,94854.03
2019-01-12T18:01:43.767Z,94857.78
2019-01-12T18:04:14.938Z,94857.05
2019-01-12T18:06:46.264Z,94851.10
2019-01-12T18:09:17.451Z,94853.76
2019-01-12T18:11:48.664Z,94848.95
2019-01-12T18:14:20.083Z,94846.45
2019-01-12T18:16:51.385Z,94843.31
2019-01-12T18:19:22.659Z,94842.74
2019-01-12T18:21:53.943Z,94843.70
2019-01-12T18:24:25.129Z,94835.45
2019-01-12T18:26:56.369Z,94838.04
2019-01-12T18:29:27.652Z,94834.13
2019-01-12T18:31:58.871Z,94839.07
2019-01-12T18:34:30.027Z,94832.38
2019-01-12T18:37:01.313Z,94831.29
2019-01-12T18:39:32.506Z,94833.22
2019-01-12T18:42:03.848Z,94832.94
2019-01-12T18:44:34.980Z,94835.59
2019-01-12T18:47:06.118Z,94838.51
2019-01-12T18:49:37.451Z,94835.16
2019-01-12T18:52:08.811Z,94835.38
2019-01-12T18:54:41.484Z,94832.14
2019-01-12T18:57:12.768Z,94833.81
2019-01-12T18:59:44.098Z,94829.66
2019-01-12T19:02:15.246Z,94835.38
2019-01-12T19:04:46.536Z,94833.37
2019-01-12T19:07:17.740Z,94836.69
2019-01-12T19:09:48.875Z,94824.71
2019-01-12T19:12:20.093Z,94832.17
2019-01-12T19:14:51.392Z,94833.99
2019-01-12T19:17:22.625Z,94836.36
2019-01-12T19:19:53.994Z,94835.23
2019-01-12T19:22:25.231Z,94831.95
2019-01-12T19:24:56.510Z,94832.75
2019-01-12T19:27:27.693Z,94822.20
2019-01-12T19:29:59.029Z,94823.35
2019-01-12T19:32:30.402Z,94827.00
2019-01-12T19:35:01.490Z,94831.47
2019-01-12T19:37:33.941Z,94831.00
2019-01-12T19:40:06.829Z,94830.97
2019-01-12T19:42:38.104Z,94829.70
2019-01-12T19:45:10.587Z,94830.82
2019-01-12T19:47:41.819Z,94832.25
2019-01-12T19:50:18.772Z,94828.75
2019-01-12T19:52:50.043Z,94826.49
2019-01-12T19:55:21.309Z,94825.42
2019-01-12T19:57:52.345Z,94829.73
2019-01-12T20:00:26.876Z,94828.66
2019-01-12T20:02:58.140Z,94824.80
2019-01-12T20:05:29.444Z,94825.25
2019-01-12T20:08:00.633Z,94824.27
2019-01-12T20:10:31.933Z,94820.15
2019-01-12T20:13:03.282Z,94824.03
2019-01-12T20:15:34.594Z,94817.66
2019-01-12T20:18:05.859Z,94822.12
2019-01-12T20:20:37.075Z,94817.95
2019-01-12T20:23:08.406Z,94814.62
2019-01-12T20:25:39.834Z,94811.28
2019-01-12T20:28:17.590Z,94809.83
2019-01-12T20:31:31.616Z,94804.38
2019-01-12T20:34:33.007Z,94805.13
2019-01-12T20:37:57.100Z,94797.70
2019-01-12T20:40:58.802Z,94787.83
2019-01-12T20:43:54.506Z,94785.44
2019-01-12T20:47:11.559Z,94792.23
2019-01-12T20:49:54.790Z,94784.56
2019-01-12T20:52:56.985Z,94785.20
2019-01-12T20:56:02.983Z,94773.75
2019-01-12T20:59:27.950Z,94768.14
2019-01-12T21:02:52.963Z,94763.70
2019-01-12T21:06:07.328Z,94771.56
2019-01-12T21:09:28.805Z,94758.14
2019-01-12T21:12:32.611Z,94752.86
2019-01-12T21:15:21.049Z,94750.97
2019-01-12T21:17:52.376Z,94750.45
2019-01-12T21:20:26.097Z,94741.58
2019-01-12T21:22:57.745Z,94742.23
2019-01-12T21:25:29.093Z,94740.02
2019-01-12T21:28:00.703Z,94743.18
2019-01-12T21:30:32.134Z,94742.27
2019-01-12T21:33:04.556Z,94743.83
2019-01-12T21:35:36.086Z,94748.96
2019-01-12T21:38:07.569Z,94748.99
2019-01-12T21:40:39.031Z,94747.42
2019-01-12T21:43:10.513Z,94752.55
2019-01-12T21:45:41.978Z,94752.87
2019-01-12T21:48:14.457Z,94758.94
2019-01-12T21:50:45.896Z,94752.89
2019-01-12T21:53:17.274Z,94754.69
2019-01-12T21:55:48.685Z,94752.95
2019-01-12T21:58:20.005Z,94755.74
2019-01-12T22:00:51.344Z,94753.55
2019-01-12T22:03:22.604Z,94752.67
2019-01-12T22:05:53.960Z,94745.50
2019-01-12T22:08:25.046Z,94746.89
2019-01-12T22:10:56.478Z,94746.69
2019-01-12T22:13:27.678Z,94748.39
2019-01-12T22:15:59.014Z,94746.31
2019-01-12T22:18:30.172Z,94743.72
2019-01-12T22:21:01.322Z,94748.56
2019-01-12T22:23:33.209Z,94747.17
2019-01-12T22:26:04.322Z,94746.94
2019-01-12T22:28:35.723Z,94740.58
2019-01-12T22:31:06.973Z,94736.50
2019-01-12T22:33:38.076Z,94736.48
2019-01-12T22:36:10.547Z,94735.47
2019-01-12T22:38:41.834Z,94722.84
2019-01-12T22:41:13.219Z,94722.14
2019-01-12T22:43:44.451Z,94719.20
2019-01-12T22:46:15.676Z,94717.38
2019-01-12T22:48:46.967Z,94721.30
2019-01-12T22:51:18.317Z,94720.39
2019-01-12T22:53:49.418Z,94718.17
2019-01-12T22:56:20.838Z,94711.15
2019-01-12T22:58:52.024Z,94706.44
2019-01-12T23:01:53.277Z,94713.22
2019-01-12T23:04:26.362Z,94703.42
2019-01-12T23:06:57.682Z,94708.19
2019-01-12T23:09:29.064Z,94710.11
2019-01-12T23:12:00.352Z,94705.88
2019-01-12T23:14:33.035Z,94700.68
2019-01-12T23:17:05.773Z,94701.92
2019-01-12T23:19:37.185Z,94697.58
2019-01-12T23:22:08.354Z,94707.25
2019-01-12T23:24:39.550Z,94700.61
2019-01-12T23:27:10.718Z,94706.82
2019-01-12T23:29:42.100Z,94707.05
2019-01-12T23:32:13.590Z,94703.88
2019-01-12T23:34:44.918Z,94703.37
2019-01-12T23:37:16.087Z,94708.93
2019-01-12T23:39:47.430Z,94704.08
2019-01-12T23:42:18.825Z,94694.05
2019-01-12T23:44:50.026Z,94704.23
2019-01-12T23:47:21.184Z,94696.74
2019-01-12T23:49:52.384Z,94695.75
2019-01-12T23:52:23.408Z,94697.44
2019-01-12T23:54:54.676Z,94698.10
2019-01-12T23:57:25.947Z,94687.66
2019-01-12T23:59:57.114Z,94689.27
